createdAt,value
2022-10-14T00:01:44.424Z,11.03
2022-10-14T00:04:10.948Z,9.23
2022-10-14T00:06:38.216Z,10.30
2022-10-14T00:09:08.592Z,10.33
2022-10-14T00:11:36.879Z,9.90
2022-10-14T00:14:08.095Z,9.00
2022-10-14T00:16:39.484Z,10.20
2022-10-14T00:19:06.309Z,10.37
2022-10-14T00:21:33.832Z,9.50
2022-10-14T00:24:00.688Z,10.00
2022-10-14T00:26:30.882Z,8.23
2022-10-14T00:28:59.330Z,10.93
2022-10-14T00:31:27.116Z,10.30
2022-10-14T00:33:54.060Z,10.90
2022-10-14T00:36:22.856Z,9.63
2022-10-14T00:38:50.157Z,9.77
2022-10-14T00:41:35.175Z,9.60
2022-10-14T00:44:10.897Z,8.20
2022-10-14T00:46:39.877Z,8.43
2022-10-14T00:49:16.967Z,8.70
2022-10-14T00:51:50.139Z,8.77
2022-10-14T00:54:18.578Z,10.07
2022-10-14T00:56:47.425Z,8.90
2022-10-14T00:59:15.224Z,8.23
2022-10-14T01:01:41.857Z,9.00
2022-10-14T01:04:08.370Z,8.30
2022-10-14T01:06:49.585Z,8.00
2022-10-14T01:10:02.596Z,8.77
2022-10-14T01:12:36.799Z,9.53
2022-10-14T01:15:06.978Z,8.00
2022-10-14T01:17:45.344Z,7.93
2022-10-14T01:20:33.462Z,8.80
2022-10-14T01:23:13.263Z,8.67
2022-10-14T01:25:58.816Z,8.17
2022-10-14T01:28:52.893Z,7.53
2022-10-14T01:31:26.948Z,7.30
2022-10-14T01:33:57.898Z,8.13
2022-10-14T01:36:54.456Z,8.43
2022-10-14T01:39:27.467Z,8.07
2022-10-14T01:42:01.324Z,7.27
2022-10-14T01:44:30.250Z,8.93
2022-10-14T01:47:00.357Z,9.40
2022-10-14T01:49:36.013Z,9.43
2022-10-14T01:52:08.304Z,7.70
2022-10-14T01:54:40.525Z,7.30
2022-10-14T01:57:15.970Z,7.30
2022-10-14T01:59:43.642Z,6.50
2022-10-14T02:02:12.451Z,8.00
2022-10-14T02:04:39.715Z,7.20
2022-10-14T02:07:17.468Z,6.40
2022-10-14T02:10:08.632Z,7.50
2022-10-14T02:12:48.317Z,6.77
2022-10-14T02:15:20.579Z,7.60
2022-10-14T02:17:58.790Z,7.40
2022-10-14T02:20:32.236Z,7.83
2022-10-14T02:23:20.357Z,6.70
2022-10-14T02:25:49.141Z,7.40
2022-10-14T02:28:19.213Z,6.60
2022-10-14T02:30:52.088Z,7.17
2022-10-14T02:33:22.346Z,6.97
2022-10-14T02:35:50.769Z,7.23
2022-10-14T02:38:19.992Z,6.50
2022-10-14T02:40:49.774Z,6.30
2022-10-14T02:43:18.345Z,6.23
2022-10-14T02:45:44.961Z,7.23
2022-10-14T02:48:12.451Z,6.30
2022-10-14T02:50:39.997Z,6.93
2022-10-14T02:53:06.538Z,6.50
2022-10-14T02:55:33.079Z,5.47
2022-10-14T02:57:59.584Z,5.93
2022-10-14T03:00:26.337Z,6.60
2022-10-14T03:02:52.844Z,8.20
2022-10-14T03:05:19.457Z,6.70
2022-10-14T03:07:45.983Z,6.97
2022-10-14T03:10:12.492Z,6.30
2022-10-14T03:12:39.034Z,5.93
2022-10-14T03:15:06.478Z,8.50
2022-10-14T03:17:33.016Z,5.57
2022-10-14T03:19:59.630Z,6.70
2022-10-14T03:22:26.521Z,6.70
2022-10-14T03:24:53.189Z,5.90
2022-10-14T03:27:19.757Z,6.83
2022-10-14T03:29:46.276Z,7.20
2022-10-14T03:32:12.835Z,5.77
2022-10-14T03:34:39.357Z,6.57
2022-10-14T03:37:06.307Z,6.03
2022-10-14T03:39:32.854Z,6.17
2022-10-14T03:41:59.497Z,5.77
2022-10-14T03:44:26.171Z,5.53
2022-10-14T03:46:52.717Z,6.30
2022-10-14T03:49:19.331Z,5.80
2022-10-14T03:51:45.851Z,5.90
2022-10-14T03:54:12.850Z,5.17
2022-10-14T03:56:39.373Z,5.33
2022-10-14T03:59:05.870Z,5.93
2022-10-14T04:01:32.471Z,5.00
2022-10-14T04:03:59.040Z,5.53
2022-10-14T04:06:25.676Z,5.93
2022-10-14T04:08:52.208Z,6.73
2022-10-14T04:11:18.835Z,5.67
2022-10-14T04:13:45.357Z,5.20
2022-10-14T04:16:12.152Z,5.87
2022-10-14T04:18:39.009Z,5.57
2022-10-14T04:21:11.861Z,5.30
2022-10-14T04:23:38.752Z,5.00
2022-10-14T04:26:08.079Z,5.07
2022-10-14T04:28:35.154Z,5.60
2022-10-14T04:31:02.272Z,5.30
2022-10-14T04:33:28.990Z,4.80
2022-10-14T04:36:04.161Z,6.10
2022-10-14T04:38:30.796Z,5.50
2022-10-14T04:40:57.825Z,9.20
2022-10-14T04:43:24.439Z,9.33
2022-10-14T04:45:51.211Z,9.90
2022-10-14T04:48:18.273Z,7.73
2022-10-14T04:50:45.023Z,5.90
2022-10-14T04:53:13.758Z,5.87
2022-10-14T04:55:40.706Z,5.17
2022-10-14T04:58:07.440Z,5.70
2022-10-14T05:00:33.999Z,5.87
2022-10-14T05:03:00.512Z,5.17
2022-10-14T05:05:27.192Z,5.03
2022-10-14T05:07:53.806Z,5.53
2022-10-14T05:10:20.376Z,5.00
2022-10-14T05:12:46.933Z,5.30
2022-10-14T05:15:13.725Z,4.87
2022-10-14T05:17:40.543Z,4.50
2022-10-14T05:20:07.545Z,4.83
2022-10-14T05:22:34.083Z,4.93
2022-10-14T05:25:00.588Z,4.23
2022-10-14T05:27:27.156Z,4.73
2022-10-14T05:29:53.725Z,4.30
2022-10-14T05:32:20.689Z,4.47
2022-10-14T05:34:47.882Z,3.90
2022-10-14T05:37:14.479Z,4.33
2022-10-14T05:39:41.031Z,8.80
2022-10-14T05:42:07.564Z,9.20
2022-10-14T05:44:34.293Z,9.10
2022-10-14T05:47:00.810Z,7.23
2022-10-14T05:49:27.345Z,6.00
2022-10-14T05:51:53.872Z,4.30
2022-10-14T05:54:20.388Z,4.97
2022-10-14T05:56:47.007Z,7.10
2022-10-14T05:59:13.697Z,6.00
2022-10-14T06:01:40.726Z,4.67
2022-10-14T06:04:07.950Z,4.80
2022-10-14T06:06:34.540Z,4.30
2022-10-14T06:09:01.065Z,4.00
2022-10-14T06:11:27.830Z,4.17
2022-10-14T06:13:54.394Z,4.07
2022-10-14T06:16:20.949Z,3.50
2022-10-14T06:18:51.064Z,3.70
2022-10-14T06:21:20.686Z,3.53
2022-10-14T06:23:47.301Z,3.50
2022-10-14T06:26:13.889Z,3.40
2022-10-14T06:28:41.042Z,3.40
2022-10-14T06:31:07.657Z,3.03
2022-10-14T06:33:34.999Z,3.50
2022-10-14T06:36:03.148Z,3.03
2022-10-14T06:38:29.872Z,3.20
2022-10-14T06:40:56.400Z,3.60
2022-10-14T06:43:23.373Z,3.70
2022-10-14T06:45:50.144Z,3.40
2022-10-14T06:48:16.683Z,2.93
2022-10-14T06:50:43.239Z,3.27
2022-10-14T06:53:09.821Z,3.93
2022-10-14T06:55:36.363Z,3.30
2022-10-14T06:58:02.875Z,3.10
2022-10-14T07:00:29.484Z,3.33
2022-10-14T07:02:58.939Z,3.17
2022-10-14T07:05:26.511Z,4.27
2022-10-14T07:07:53.066Z,3.13
2022-10-14T07:10:19.906Z,3.53
2022-10-14T07:12:46.425Z,3.20
2022-10-14T07:15:12.945Z,2.90
2022-10-14T07:17:39.777Z,2.90
2022-10-14T07:20:07.270Z,3.17
2022-10-14T07:22:38.655Z,2.80
2022-10-14T07:25:06.459Z,3.00
2022-10-14T07:27:33.059Z,3.50
2022-10-14T07:29:59.757Z,2.93
2022-10-14T07:32:26.347Z,3.03
2022-10-14T07:34:52.981Z,2.50
2022-10-14T07:37:19.856Z,3.30
2022-10-14T07:39:46.588Z,2.57
2022-10-14T07:42:13.123Z,2.83
2022-10-14T07:44:39.840Z,4.60
2022-10-14T07:47:07.397Z,4.47
2022-10-14T07:49:33.965Z,5.27
2022-10-14T07:52:00.493Z,4.70
2022-10-14T07:54:29.944Z,4.20
2022-10-14T07:56:57.853Z,6.07
2022-10-14T07:59:25.494Z,4.70
2022-10-14T08:01:53.013Z,4.63
2022-10-14T08:04:19.891Z,4.87
2022-10-14T08:06:50.358Z,4.73
2022-10-14T08:09:18.204Z,4.67
2022-10-14T08:11:45.025Z,4.43
2022-10-14T08:14:11.764Z,3.93
2022-10-14T08:16:39.550Z,3.60
2022-10-14T08:19:14.404Z,3.13
2022-10-14T08:21:43.033Z,2.97
2022-10-14T08:24:10.435Z,2.90
2022-10-14T08:26:39.507Z,3.17
2022-10-14T08:29:12.280Z,3.10
2022-10-14T08:31:38.859Z,2.47
2022-10-14T08:34:05.511Z,2.83
2022-10-14T08:36:32.189Z,2.13
2022-10-14T08:38:58.795Z,2.13
2022-10-14T08:41:55.796Z,2.07
2022-10-14T08:44:27.038Z,2.40
2022-10-14T08:47:00.093Z,1.60
2022-10-14T08:49:37.673Z,2.10
2022-10-14T08:52:12.475Z,2.27
2022-10-14T08:54:44.141Z,2.37
2022-10-14T08:57:34.872Z,1.97
2022-10-14T09:00:02.068Z,2.20
2022-10-14T09:02:47.157Z,1.90
2022-10-14T09:05:15.829Z,1.90
2022-10-14T09:07:44.659Z,1.90
2022-10-14T09:10:41.063Z,2.10
2022-10-14T09:13:15.567Z,1.80
2022-10-14T09:15:45.856Z,1.90
2022-10-14T09:18:38.069Z,1.87
2022-10-14T09:21:47.927Z,1.90
2022-10-14T09:24:13.600Z,2.03
2022-10-14T09:26:43.102Z,1.70
2022-10-14T09:29:29.059Z,1.63
2022-10-14T09:31:58.938Z,2.00
2022-10-14T09:34:38.408Z,2.00
2022-10-14T09:37:28.073Z,2.03
2022-10-14T09:39:59.063Z,1.50
2022-10-14T09:42:51.175Z,2.07
2022-10-14T09:45:22.576Z,2.30
2022-10-14T09:47:58.317Z,2.20
2022-10-14T09:50:53.864Z,1.77
2022-10-14T09:53:45.250Z,2.20
2022-10-14T09:56:13.039Z,2.10
2022-10-14T09:58:44.485Z,2.63
2022-10-14T10:01:19.487Z,2.13
2022-10-14T10:03:47.918Z,3.43
2022-10-14T10:06:19.000Z,2.53
2022-10-14T10:08:55.091Z,2.60
2022-10-14T10:11:33.243Z,3.60
2022-10-14T10:14:14.975Z,3.30
2022-10-14T10:16:41.565Z,3.10
2022-10-14T10:19:31.884Z,3.10
2022-10-14T10:24:52.389Z,3.00
2022-10-14T10:27:21.835Z,2.93
2022-10-14T10:29:48.606Z,3.43
2022-10-14T10:32:35.378Z,3.17
2022-10-14T10:35:14.785Z,3.27
2022-10-14T10:38:00.369Z,3.27
2022-10-14T10:40:26.846Z,3.30
2022-10-14T10:43:12.542Z,2.87
2022-10-14T10:46:08.275Z,4.20
2022-10-14T10:48:50.016Z,2.93
2022-10-14T10:51:39.667Z,3.97
2022-10-14T10:54:35.906Z,3.27
2022-10-14T10:57:12.925Z,3.37
2022-10-14T11:00:01.149Z,3.20
2022-10-14T11:02:55.036Z,3.23
2022-10-14T11:05:52.288Z,4.07
2022-10-14T11:09:06.624Z,4.87
2022-10-14T11:12:03.709Z,9.33
2022-10-14T11:14:36.062Z,22.40
2022-10-14T11:17:23.159Z,21.70
2022-10-14T11:19:58.766Z,22.00
2022-10-14T11:22:41.210Z,21.50
2022-10-14T11:25:49.154Z,26.13
2022-10-14T11:28:57.626Z,25.87
2022-10-14T11:31:51.321Z,29.10
2022-10-14T11:34:36.541Z,32.63
2022-10-14T11:37:42.186Z,37.77
2022-10-14T11:40:14.816Z,41.93
2022-10-14T11:43:13.563Z,43.03
2022-10-14T11:45:50.240Z,45.50
2022-10-14T11:48:22.318Z,45.00
2022-10-14T11:50:54.393Z,45.10
2022-10-14T11:53:27.509Z,42.10
2022-10-14T11:56:29.579Z,43.93
2022-10-14T11:59:03.181Z,40.87
2022-10-14T12:01:35.603Z,40.07
2022-10-14T12:04:12.368Z,39.27
2022-10-14T12:06:55.625Z,35.93
2022-10-14T12:09:31.088Z,37.70
2022-10-14T12:12:08.898Z,37.70
2022-10-14T12:14:50.076Z,38.40
2022-10-14T12:17:24.123Z,35.47
2022-10-14T12:19:51.372Z,35.73
2022-10-14T12:22:25.728Z,34.63
2022-10-14T12:24:55.228Z,36.03
2022-10-14T12:27:25.678Z,37.37
2022-10-14T12:29:55.037Z,35.23
2022-10-14T12:32:31.698Z,35.17
2022-10-14T12:35:01.548Z,33.50
2022-10-14T12:37:32.427Z,33.33
2022-10-14T12:40:02.250Z,33.40
2022-10-14T12:42:30.581Z,35.57
2022-10-14T12:45:01.183Z,34.20
2022-10-14T12:47:35.143Z,32.60
2022-10-14T12:50:06.160Z,32.43
2022-10-14T12:52:37.225Z,32.80
2022-10-14T12:55:17.241Z,32.60
2022-10-14T12:57:43.890Z,31.57
2022-10-14T13:00:22.431Z,34.20
2022-10-14T13:02:51.399Z,32.80
2022-10-14T13:05:38.796Z,32.20
2022-10-14T13:08:19.987Z,31.93
2022-10-14T13:10:50.185Z,32.13
2022-10-14T13:13:53.686Z,30.40
2022-10-14T13:16:26.348Z,31.10
2022-10-14T13:19:02.266Z,30.03
2022-10-14T13:21:34.851Z,34.13
2022-10-14T13:24:03.046Z,29.67
2022-10-14T13:26:43.737Z,32.00
2022-10-14T13:29:16.112Z,28.80
2022-10-14T13:32:04.190Z,29.60
2022-10-14T13:34:36.701Z,30.60
2022-10-14T13:37:32.411Z,30.50
2022-10-14T13:40:34.744Z,28.20
2022-10-14T13:43:08.629Z,26.63
2022-10-14T13:45:42.271Z,27.37
2022-10-14T13:48:19.829Z,28.17
2022-10-14T13:50:50.261Z,28.30
2022-10-14T13:53:20.839Z,26.57
2022-10-14T13:55:54.444Z,26.70
2022-10-14T13:58:23.222Z,27.47
2022-10-14T14:01:04.217Z,26.80
2022-10-14T14:03:44.805Z,26.57
2022-10-14T14:06:14.672Z,27.80
2022-10-14T14:08:51.140Z,27.27
2022-10-14T14:11:21.091Z,26.50
2022-10-14T14:14:00.271Z,27.37
2022-10-14T14:16:33.220Z,28.20
2022-10-14T14:19:08.304Z,28.53
2022-10-14T14:21:35.627Z,27.50
2022-10-14T14:24:06.015Z,27.73
2022-10-14T14:26:37.892Z,25.90
2022-10-14T14:29:20.405Z,27.17
2022-10-14T14:32:06.582Z,24.53
2022-10-14T14:34:35.656Z,25.10
2022-10-14T14:37:23.533Z,25.80
2022-10-14T14:40:21.858Z,26.40
2022-10-14T14:42:58.282Z,25.50
2022-10-14T14:45:30.716Z,24.50
2022-10-14T14:48:01.982Z,26.27
2022-10-14T14:50:33.538Z,23.63
2022-10-14T14:53:15.244Z,24.23
2022-10-14T14:55:53.843Z,24.10
2022-10-14T14:58:26.065Z,24.03
2022-10-14T15:00:54.658Z,23.07
2022-10-14T15:03:24.881Z,24.30
2022-10-14T15:06:15.213Z,23.93
2022-10-14T15:08:41.761Z,24.20
2022-10-14T15:11:08.911Z,24.67
2022-10-14T15:13:38.424Z,22.80
2022-10-14T15:16:06.342Z,24.10
2022-10-14T15:18:33.005Z,21.50
2022-10-14T15:21:11.686Z,23.30
2022-10-14T15:24:00.129Z,21.53
2022-10-14T15:26:35.436Z,22.60
2022-10-14T15:29:07.529Z,23.37
2022-10-14T15:31:38.640Z,24.40
2022-10-14T15:34:05.927Z,21.20
2022-10-14T15:36:34.515Z,22.30
2022-10-14T15:39:02.317Z,20.13
2022-10-14T15:41:29.082Z,20.50
2022-10-14T15:43:55.661Z,20.83
2022-10-14T15:46:41.630Z,20.03
2022-10-14T15:49:15.720Z,20.40
2022-10-14T15:51:42.272Z,20.37
2022-10-14T15:54:14.771Z,19.77
2022-10-14T15:56:41.333Z,21.20
2022-10-14T15:59:08.286Z,19.50
2022-10-14T16:01:37.959Z,19.30
2022-10-14T16:04:05.142Z,19.40
2022-10-14T16:06:32.463Z,21.77
2022-10-14T16:08:59.118Z,20.70
2022-10-14T16:11:28.422Z,20.13
2022-10-14T16:13:55.043Z,23.40
2022-10-14T16:16:26.976Z,20.13
2022-10-14T16:18:53.878Z,21.47
2022-10-14T16:21:20.390Z,20.33
2022-10-14T16:23:46.896Z,21.17
2022-10-14T16:26:14.291Z,20.13
2022-10-14T16:28:40.914Z,19.50
2022-10-14T16:31:12.288Z,20.10
2022-10-14T16:33:41.754Z,19.03
2022-10-14T16:36:14.210Z,20.63
2022-10-14T16:38:40.743Z,18.90
2022-10-14T16:41:09.872Z,20.57
2022-10-14T16:43:36.608Z,21.37
2022-10-14T16:46:04.451Z,19.40
2022-10-14T16:48:33.217Z,20.37
2022-10-14T16:51:00.180Z,20.87
2022-10-14T16:53:41.394Z,19.70
2022-10-14T16:56:30.857Z,20.90
2022-10-14T16:58:58.208Z,19.87
2022-10-14T17:01:25.495Z,19.20
2022-10-14T17:03:52.487Z,19.80
2022-10-14T17:06:23.926Z,17.70
2022-10-14T17:08:51.151Z,18.93
2022-10-14T17:11:18.400Z,18.60
2022-10-14T17:13:45.217Z,17.30
2022-10-14T17:16:11.985Z,19.47
2022-10-14T17:18:38.562Z,19.53
2022-10-14T17:21:11.907Z,18.20
2022-10-14T17:23:43.622Z,19.30
2022-10-14T17:26:13.188Z,19.20
2022-10-14T17:28:40.836Z,17.30
2022-10-14T17:31:10.037Z,18.37
2022-10-14T17:33:37.343Z,18.73
2022-10-14T17:36:06.266Z,18.07
2022-10-14T17:38:35.733Z,18.80
2022-10-14T17:41:05.765Z,18.57
2022-10-14T17:43:32.702Z,16.53
2022-10-14T17:46:12.591Z,18.03
2022-10-14T17:48:43.384Z,17.57
2022-10-14T17:51:11.118Z,16.77
2022-10-14T17:53:38.509Z,17.80
2022-10-14T17:56:11.987Z,16.80
2022-10-14T17:58:39.069Z,17.60
2022-10-14T18:01:10.719Z,16.80
2022-10-14T18:03:40.825Z,17.30
2022-10-14T18:06:18.119Z,17.73
2022-10-14T18:08:50.245Z,17.10
2022-10-14T18:11:17.814Z,17.60
2022-10-14T18:13:44.484Z,17.43
2022-10-14T18:16:13.212Z,16.73
2022-10-14T18:18:41.666Z,11.10
2022-10-14T18:21:09.495Z,12.47
2022-10-14T18:23:38.926Z,16.00
2022-10-14T18:26:10.921Z,14.83
2022-10-14T18:28:42.865Z,16.43
2022-10-14T18:31:27.053Z,14.40
2022-10-14T18:33:54.968Z,15.13
2022-10-14T18:36:24.387Z,15.30
2022-10-14T18:39:11.612Z,13.83
2022-10-14T18:41:38.665Z,15.00
2022-10-14T18:44:06.075Z,14.90
2022-10-14T18:46:40.748Z,14.40
2022-10-14T18:49:10.577Z,14.10
2022-10-14T18:51:39.020Z,15.53
2022-10-14T18:54:08.367Z,15.67
2022-10-14T18:56:40.182Z,14.80
2022-10-14T18:59:18.522Z,13.13
2022-10-14T19:01:47.375Z,13.80
2022-10-14T19:04:15.792Z,12.70
2022-10-14T19:06:45.749Z,14.20
2022-10-14T19:09:13.682Z,15.67
2022-10-14T19:11:41.314Z,14.80
2022-10-14T19:14:08.996Z,13.57
2022-10-14T19:16:37.965Z,14.30
2022-10-14T19:19:18.143Z,14.87
2022-10-14T19:21:46.346Z,14.37
2022-10-14T19:24:13.835Z,14.10
2022-10-14T19:26:43.402Z,13.63
2022-10-14T19:29:12.572Z,15.00
2022-10-14T19:31:39.939Z,14.37
2022-10-14T19:34:08.708Z,13.17
2022-10-14T19:36:38.964Z,14.90
2022-10-14T19:39:07.160Z,13.97
2022-10-14T19:41:38.283Z,14.60
2022-10-14T19:44:04.892Z,13.80
2022-10-14T19:46:31.423Z,13.20
2022-10-14T19:48:59.937Z,13.37
2022-10-14T19:51:27.067Z,13.93
2022-10-14T19:53:57.793Z,13.30
2022-10-14T19:56:25.543Z,12.67
2022-10-14T19:58:58.026Z,13.70
2022-10-14T20:01:26.768Z,12.80
2022-10-14T20:03:53.787Z,13.10
2022-10-14T20:06:21.723Z,13.30
2022-10-14T20:08:48.845Z,12.13
2022-10-14T20:11:17.746Z,12.23
2022-10-14T20:13:45.517Z,13.17
2022-10-14T20:16:12.963Z,13.00
2022-10-14T20:18:39.730Z,13.03
2022-10-14T20:21:07.776Z,11.20
2022-10-14T20:23:36.254Z,12.07
2022-10-14T20:26:07.981Z,13.50
2022-10-14T20:28:36.219Z,14.20
2022-10-14T20:31:05.122Z,12.80
2022-10-14T20:33:32.021Z,12.27
2022-10-14T20:36:19.982Z,13.50
2022-10-14T20:38:47.470Z,12.87
2022-10-14T20:41:15.332Z,11.63
2022-10-14T20:43:42.975Z,13.37
2022-10-14T20:46:09.869Z,12.83
2022-10-14T20:48:39.351Z,12.43
2022-10-14T20:51:14.245Z,12.70
2022-10-14T20:56:13.545Z,10.97
2022-10-14T20:58:40.823Z,11.80
2022-10-14T21:01:17.551Z,12.97
2022-10-14T21:03:45.909Z,11.67
2022-10-14T21:06:18.908Z,12.30
2022-10-14T21:08:46.541Z,11.40
2022-10-14T21:11:15.714Z,11.10
2022-10-14T21:13:47.351Z,13.03
2022-10-14T21:16:15.424Z,12.17
2022-10-14T21:18:46.275Z,12.20
2022-10-14T21:21:15.879Z,11.80
2022-10-14T21:23:43.953Z,11.40
2022-10-14T21:26:10.682Z,11.60
2022-10-14T21:28:37.289Z,11.77
2022-10-14T21:31:08.297Z,10.17
2022-10-14T21:33:35.372Z,11.57
2022-10-14T21:36:04.478Z,11.40
2022-10-14T21:38:31.138Z,9.97
2022-10-14T21:41:00.120Z,11.30
2022-10-14T21:43:28.353Z,11.50
2022-10-14T21:45:54.990Z,10.93
2022-10-14T21:48:22.438Z,11.73
2022-10-14T21:50:49.002Z,11.27
2022-10-14T21:53:16.233Z,10.90
2022-10-14T21:55:42.853Z,11.70
2022-10-14T21:58:09.361Z,11.70
2022-10-14T22:00:35.910Z,10.47
2022-10-14T22:03:02.454Z,10.80
2022-10-14T22:05:29.020Z,9.87
2022-10-14T22:07:55.758Z,8.90
2022-10-14T22:10:57.497Z,10.60
2022-10-14T22:13:25.495Z,10.40
2022-10-14T22:15:52.651Z,10.90
2022-10-14T22:18:19.257Z,10.93
2022-10-14T22:20:46.003Z,10.87
2022-10-14T22:23:12.964Z,9.70
2022-10-14T22:25:39.477Z,10.27
2022-10-14T22:28:06.083Z,10.63
2022-10-14T22:30:34.056Z,10.50
2022-10-14T22:33:00.686Z,9.73
2022-10-14T22:35:27.278Z,10.27
2022-10-14T22:37:53.788Z,9.70
2022-10-14T22:40:20.325Z,9.63
2022-10-14T22:42:51.445Z,9.83
2022-10-14T22:45:18.219Z,10.43
2022-10-14T22:47:44.749Z,10.80
2022-10-14T22:50:11.329Z,8.60
2022-10-14T22:52:38.113Z,10.67
2022-10-14T22:55:05.310Z,9.80
2022-10-14T22:57:31.846Z,8.80
2022-10-14T22:59:58.372Z,10.03
2022-10-14T23:02:25.268Z,9.10
2022-10-14T23:04:52.159Z,9.60
2022-10-14T23:07:18.801Z,8.50
2022-10-14T23:09:45.924Z,8.97
2022-10-14T23:12:12.494Z,9.23
2022-10-14T23:14:39.020Z,9.90
2022-10-14T23:17:05.535Z,9.00
2022-10-14T23:19:32.061Z,8.73
2022-10-14T23:21:58.568Z,8.63
2022-10-14T23:24:25.568Z,9.00
2022-10-14T23:26:52.083Z,8.40
2022-10-14T23:29:18.691Z,8.50
2022-10-14T23:31:45.195Z,9.40
2022-10-14T23:34:13.537Z,8.83
2022-10-14T23:36:40.689Z,8.40
2022-10-14T23:39:07.394Z,8.70
2022-10-14T23:41:34.007Z,8.30
2022-10-14T23:44:00.546Z,8.50
2022-10-14T23:46:27.060Z,8.70
2022-10-14T23:49:06.909Z,8.00
2022-10-14T23:51:34.862Z,8.53
2022-10-14T23:54:01.392Z,9.27
2022-10-14T23:56:27.957Z,7.67
2022-10-14T23:58:54.465Z,8.50
